Time;durP1;ratioP1;P1;durP2;ratioP2;P2;SDS_P1;SDS_P2;PMS_P1;PMS_P2;Temp;Humidity;BMP_temperature;BMP_pressure;BME280_temperature;BME280_humidity;BME280_pressure;Samples;Min_cycle;Max_cycle;Signal;HPM_P1;HPM_P2
2023/04/16 00:00:40;;;;;;;35.27;21.50;;;8.00;1.00;;;;;;5032241;28;20211;-52
2023/04/16 00:03:05;;;;;;;40.43;21.93;;;8.00;1.00;;;;;;5032140;28;20188;-52
2023/04/16 00:05:31;;;;;;;37.13;22.67;;;7.90;1.00;;;;;;5032092;28;20586;-52
2023/04/16 00:07:56;;;;;;;30.53;20.47;;;7.80;1.00;;;;;;5032488;28;20184;-55
2023/04/16 00:10:22;;;;;;;33.10;21.20;;;7.80;99.90;;;;;;5032412;28;20702;-52
2023/04/16 00:12:47;;;;;;;35.57;21.60;;;7.70;3.50;;;;;;5031927;28;20179;-52
2023/04/16 00:15:13;;;;;;;36.40;22.97;;;7.70;99.90;;;;;;5031783;28;20207;-52
2023/04/16 00:17:38;;;;;;;37.50;22.53;;;7.60;99.90;;;;;;5031960;28;20186;-52
2023/04/16 00:20:05;;;;;;;34.03;22.17;;;7.60;99.90;;;;;;5032105;28;20178;-52
2023/04/16 00:22:31;;;;;;;34.93;21.23;;;7.50;1.00;;;;;;5032045;28;20183;-52
2023/04/16 00:24:56;;;;;;;34.87;21.57;;;7.50;48.00;;;;;;5032000;28;20429;-52
2023/04/16 00:27:22;;;;;;;42.23;22.33;;;7.50;61.60;;;;;;5032111;28;20207;-52
2023/04/16 00:29:47;;;;;;;35.63;21.70;;;7.50;99.90;;;;;;5031976;28;20537;-51
2023/04/16 00:32:13;;;;;;;36.00;23.10;;;7.50;99.90;;;;;;5031737;28;20233;-52
2023/04/16 00:34:39;;;;;;;32.87;21.40;;;7.40;99.90;;;;;;5031645;28;20207;-52
2023/04/16 00:37:04;;;;;;;35.30;21.87;;;7.40;1.00;;;;;;5031702;28;20191;-52
2023/04/16 00:39:30;;;;;;;40.07;23.27;;;7.50;1.00;;;;;;5031857;28;20184;-53
2023/04/16 00:41:56;;;;;;;35.00;21.60;;;7.50;99.90;;;;;;5032149;28;20658;-52
2023/04/16 00:44:21;;;;;;;36.63;22.67;;;7.50;1.00;;;;;;5031859;28;20192;-52
2023/04/16 00:46:47;;;;;;;32.67;21.23;;;7.50;1.00;;;;;;5031563;28;20559;-52
2023/04/16 00:49:13;;;;;;;36.00;20.80;;;7.50;1.00;;;;;;5031896;28;20176;-52
2023/04/16 00:51:39;;;;;;;35.00;21.00;;;7.50;1.00;;;;;;5031814;28;20816;-52
2023/04/16 00:54:05;;;;;;;35.43;21.80;;;7.50;1.00;;;;;;5031652;28;20461;-52
2023/04/16 00:56:32;;;;;;;34.97;21.40;;;7.50;1.00;;;;;;5031425;28;20195;-51
2023/04/16 00:58:58;;;;;;;35.13;20.57;;;7.50;1.00;;;;;;5032728;28;20501;-56
2023/04/16 01:01:23;;;;;;;38.70;20.90;;;7.60;1.00;;;;;;5036023;28;20421;-51
2023/04/16 01:03:49;;;;;;;42.20;21.23;;;7.60;99.90;;;;;;5036368;28;20429;-50
2023/04/16 01:06:17;;;;;;;32.80;20.47;;;7.60;99.90;;;;;;5036324;28;20186;-52
2023/04/16 01:08:43;;;;;;;34.97;21.17;;;7.60;99.90;;;;;;5036574;28;20543;-52
2023/04/16 01:11:12;;;;;;;33.60;20.57;;;7.60;99.90;;;;;;5036603;28;20413;-52
2023/04/16 01:13:38;;;;;;;33.50;20.70;;;7.70;42.80;;;;;;5036373;28;20417;-51
2023/04/16 01:16:06;;;;;;;34.90;22.53;;;7.70;1.00;;;;;;5036378;28;20413;-51
2023/04/16 01:18:32;;;;;;;31.03;20.07;;;7.70;1.00;;;;;;5036378;28;20253;-52
2023/04/16 01:20:57;;;;;;;36.47;20.10;;;7.70;1.00;;;;;;5036234;28;20849;-52
2023/04/16 01:23:23;;;;;;;30.37;19.30;;;7.70;99.90;;;;;;5036043;28;20701;-52
2023/04/16 01:25:48;;;;;;;32.43;20.20;;;7.70;99.90;;;;;;5035926;28;20186;-52
2023/04/16 01:28:14;;;;;;;33.47;19.97;;;7.70;1.00;;;;;;5036208;28;20183;-52
2023/04/16 01:30:40;;;;;;;30.70;20.60;;;7.70;99.90;;;;;;5036157;28;20261;-51
2023/04/16 01:33:07;;;;;;;29.80;18.47;;;7.70;99.90;;;;;;5036148;28;20644;-52
2023/04/16 01:35:33;;;;;;;31.33;19.23;;;7.80;99.90;;;;;;5035986;28;20222;-52
2023/04/16 01:37:59;;;;;;;33.50;20.63;;;7.80;99.90;;;;;;5035837;28;20418;-52
2023/04/16 01:40:24;;;;;;;31.67;20.03;;;7.80;99.90;;;;;;5035961;28;20221;-52
2023/04/16 01:42:50;;;;;;;29.63;19.47;;;7.80;99.90;;;;;;5035956;28;20520;-52
2023/04/16 01:45:16;;;;;;;34.37;20.37;;;7.90;1.00;;;;;;5035615;28;20306;-51
2023/04/16 01:47:41;;;;;;;28.50;18.53;;;7.80;1.00;;;;;;5035486;28;20470;-52
2023/04/16 01:50:08;;;;;;;30.37;20.70;;;7.80;1.00;;;;;;5035782;28;20215;-52
2023/04/16 01:52:34;;;;;;;35.70;19.43;;;7.80;1.00;;;;;;5035443;28;20183;-52
2023/04/16 01:54:59;;;;;;;34.23;19.17;;;7.80;1.00;;;;;;5035648;28;20465;-52
2023/04/16 01:57:25;;;;;;;30.57;19.00;;;7.80;1.00;;;;;;5035723;28;20603;-51
2023/04/16 01:59:50;;;;;;;34.63;20.50;;;7.80;1.00;;;;;;5035411;28;20196;-51
2023/04/16 02:02:16;;;;;;;32.60;19.47;;;7.80;1.00;;;;;;5035303;28;20187;-51
2023/04/16 02:04:44;;;;;;;30.80;18.30;;;7.80;1.00;;;;;;5035383;28;20207;-51
2023/04/16 02:07:10;;;;;;;33.50;19.00;;;7.80;1.00;;;;;;5035280;28;20238;-52
2023/04/16 02:09:37;;;;;;;30.70;18.90;;;7.80;1.00;;;;;;5035381;28;20501;-52
2023/04/16 02:12:03;;;;;;;36.20;20.33;;;7.90;1.00;;;;;;5035105;28;20910;-52
2023/04/16 02:14:32;;;;;;;28.53;18.07;;;7.90;1.00;;;;;;5035244;28;20458;-52
2023/04/16 02:16:58;;;;;;;33.40;18.90;;;7.80;1.00;;;;;;5035021;28;20964;-52
2023/04/16 02:19:24;;;;;;;27.93;17.60;;;7.80;1.00;;;;;;5035577;28;20429;-51
2023/04/16 02:21:53;;;;;;;31.00;18.37;;;7.90;1.00;;;;;;5035239;28;20410;-52
2023/04/16 02:24:19;;;;;;;29.47;18.57;;;7.80;1.00;;;;;;5034874;28;20671;-52
2023/04/16 02:26:45;;;;;;;28.20;18.00;;;7.80;1.00;;;;;;5035088;28;20417;-52
2023/04/16 02:29:11;;;;;;;27.23;18.00;;;7.80;1.00;;;;;;5035043;28;20920;-52
2023/04/16 02:31:37;;;;;;;31.00;19.40;;;7.80;1.00;;;;;;5034969;28;20898;-52
2023/04/16 02:34:03;;;;;;;29.80;19.30;;;7.80;1.00;;;;;;5034926;28;20211;-52
2023/04/16 02:36:30;;;;;;;36.73;20.90;;;7.80;99.90;;;;;;5034857;28;20426;-51
2023/04/16 02:38:56;;;;;;;29.00;19.53;;;7.80;99.90;;;;;;5034990;28;20497;-52
2023/04/16 02:41:22;;;;;;;37.67;21.83;;;7.80;99.90;;;;;;5034867;28;20421;-52
2023/04/16 02:43:48;;;;;;;32.50;19.43;;;7.80;99.90;;;;;;5034483;28;20441;-52
2023/04/16 02:46:13;;;;;;;33.73;19.00;;;7.70;99.90;;;;;;5034490;28;20185;-52
2023/04/16 02:48:39;;;;;;;32.40;20.63;;;7.70;1.00;;;;;;5034971;28;20245;-52
2023/04/16 02:51:05;;;;;;;32.10;21.63;;;7.70;1.00;;;;;;5034736;28;20183;-52
2023/04/16 02:53:30;;;;;;;33.77;19.70;;;7.80;1.00;;;;;;5034379;28;20224;-52
2023/04/16 02:55:56;;;;;;;34.13;20.90;;;7.70;1.00;;;;;;5034216;28;20303;-52
2023/04/16 02:58:23;;;;;;;30.17;20.00;;;7.70;1.00;;;;;;5034272;28;20247;-52
2023/04/16 03:00:49;;;;;;;31.10;20.50;;;7.70;41.80;;;;;;5034450;28;20183;-52
2023/04/16 03:03:15;;;;;;;32.13;20.73;;;7.80;99.90;;;;;;5034104;28;20513;-52
2023/04/16 03:05:41;;;;;;;33.03;21.40;;;7.80;99.90;;;;;;5034698;28;20457;-52
2023/04/16 03:08:07;;;;;;;33.63;21.20;;;7.80;99.90;;;;;;5034322;28;20413;-51
2023/04/16 03:10:34;;;;;;;33.93;20.73;;;7.80;99.90;;;;;;5034301;28;20234;-51
2023/04/16 03:12:59;;;;;;;38.27;22.10;;;7.80;99.90;;;;;;5034220;28;20186;-51
2023/04/16 03:15:26;;;;;;;32.07;21.33;;;7.80;99.90;;;;;;5033871;28;20984;-51
2023/04/16 03:17:52;;;;;;;32.40;20.77;;;7.80;99.90;;;;;;5034170;28;20648;-51
2023/04/16 03:20:18;;;;;;;32.13;21.20;;;7.80;1.00;;;;;;5033759;28;20832;-51
2023/04/16 03:22:45;;;;;;;43.17;22.20;;;7.90;1.00;;;;;;5033052;28;20430;-51
2023/04/16 03:25:10;;;;;;;36.87;22.30;;;7.90;1.00;;;;;;5034005;28;20421;-51
2023/04/16 03:27:38;;;;;;;32.27;20.47;;;7.80;99.90;;;;;;5034016;28;20488;-51
2023/04/16 03:30:05;;;;;;;36.03;22.70;;;7.80;1.00;;;;;;5033965;28;20183;-51
2023/04/16 03:32:30;;;;;;;39.80;22.40;;;7.90;1.00;;;;;;5033923;28;20818;-51
2023/04/16 03:34:56;;;;;;;41.57;24.00;;;8.00;1.00;;;;;;5033896;28;20518;-51
2023/04/16 03:37:22;;;;;;;36.00;22.43;;;8.00;99.90;;;;;;5033609;28;20577;-51
2023/04/16 03:39:47;;;;;;;39.00;22.37;;;7.90;99.90;;;;;;5033844;28;20183;-51
2023/04/16 03:42:13;;;;;;;35.30;21.93;;;8.00;99.90;;;;;;5033827;28;20203;-51
2023/04/16 03:44:38;;;;;;;39.80;23.40;;;8.00;8.30;;;;;;5033507;28;20189;-51
2023/04/16 03:47:04;;;;;;;32.83;20.93;;;8.00;1.00;;;;;;5033182;28;20267;-51
2023/04/16 03:49:29;;;;;;;36.60;22.73;;;7.90;1.00;;;;;;5033767;28;20175;-51
2023/04/16 03:51:55;;;;;;;36.07;21.90;;;7.90;1.00;;;;;;5033380;28;20214;-51
2023/04/16 03:54:20;;;;;;;35.23;21.83;;;7.90;32.30;;;;;;5033313;28;20202;-51
2023/04/16 03:56:46;;;;;;;35.80;21.83;;;8.00;7.70;;;;;;5033333;28;20189;-51
2023/04/16 03:59:12;;;;;;;37.00;22.40;;;8.10;1.00;;;;;;5033557;28;20209;-51
2023/04/16 04:01:37;;;;;;;42.50;23.93;;;8.00;99.90;;;;;;5033254;28;20183;-51
2023/04/16 04:04:03;;;;;;;38.90;21.60;;;8.00;99.90;;;;;;5033317;28;20178;-51
2023/04/16 04:06:28;;;;;;;34.73;22.10;;;8.00;1.00;;;;;;5033211;28;20646;-51
2023/04/16 04:08:54;;;;;;;36.20;21.87;;;8.00;1.00;;;;;;5033293;28;20186;-51
2023/04/16 04:11:20;;;;;;;36.03;23.40;;;8.00;1.00;;;;;;5033507;28;20213;-52
2023/04/16 04:13:45;;;;;;;35.43;21.13;;;8.10;1.00;;;;;;5033097;28;20644;-51
2023/04/16 04:16:11;;;;;;;32.77;21.23;;;8.10;99.90;;;;;;5033076;28;20194;-51
2023/04/16 04:18:36;;;;;;;33.63;21.00;;;8.10;99.90;;;;;;5033412;28;20190;-51
2023/04/16 04:21:06;;;;;;;36.00;20.57;;;8.10;99.90;;;;;;5033373;28;20179;-51
2023/04/16 04:23:32;;;;;;;35.77;23.17;;;8.10;99.90;;;;;;5033367;28;20192;-51
2023/04/16 04:25:58;;;;;;;32.67;20.57;;;8.00;99.90;;;;;;5033321;28;20483;-51
2023/04/16 04:28:24;;;;;;;35.07;21.03;;;8.10;99.90;;;;;;5033013;28;20678;-51
2023/04/16 04:30:49;;;;;;;35.63;22.80;;;8.00;99.90;;;;;;5033298;28;20182;-51
2023/04/16 04:33:15;;;;;;;37.40;20.70;;;8.00;1.00;;;;;;5034497;28;20208;-51
2023/04/16 04:35:40;;;;;;;32.47;21.87;;;8.00;1.00;;;;;;5036906;28;20323;-52
2023/04/16 04:38:06;;;;;;;33.40;20.27;;;8.00;1.00;;;;;;5036935;28;20659;-51
2023/04/16 04:40:32;;;;;;;32.33;20.90;;;8.00;1.00;;;;;;5036931;28;20185;-51
2023/04/16 04:42:57;;;;;;;32.93;22.00;;;8.00;99.90;;;;;;5037175;28;20179;-51
2023/04/16 04:45:24;;;;;;;37.00;21.93;;;8.00;99.90;;;;;;5037028;28;20241;-51
2023/04/16 04:47:54;;;;;;;35.03;21.53;;;8.00;99.90;;;;;;5036595;28;20274;-51
2023/04/16 04:50:20;;;;;;;33.23;21.33;;;8.00;99.90;;;;;;5036930;28;20509;-51
2023/04/16 04:52:46;;;;;;;38.90;23.10;;;8.00;99.90;;;;;;5036904;28;20467;-51
2023/04/16 04:55:14;;;;;;;32.20;20.67;;;8.00;99.90;;;;;;5036823;28;20997;-50
2023/04/16 04:57:40;;;;;;;38.47;22.53;;;8.10;99.90;;;;;;5036843;28;20184;-51
2023/04/16 05:00:06;;;;;;;30.23;20.57;;;8.10;99.90;;;;;;5036747;28;20443;-51
2023/04/16 05:02:32;;;;;;;32.40;21.00;;;8.10;99.90;;;;;;5036774;28;20270;-51
2023/04/16 05:04:58;;;;;;;45.27;22.20;;;8.10;99.90;;;;;;5036635;28;20517;-51
2023/04/16 05:07:23;;;;;;;36.30;23.23;;;8.10;99.90;;;;;;5036381;28;20199;-51
2023/04/16 05:09:49;;;;;;;36.60;22.77;;;8.10;99.90;;;;;;5036236;28;20179;-51
2023/04/16 05:12:15;;;;;;;36.23;21.80;;;8.10;99.90;;;;;;5036529;28;20270;-51
2023/04/16 05:14:41;;;;;;;38.30;23.53;;;8.20;1.00;;;;;;5036402;28;20253;-51
2023/04/16 05:17:06;;;;;;;36.37;22.63;;;8.20;99.90;;;;;;5036408;28;20635;-51
2023/04/16 05:19:32;;;;;;;36.83;23.20;;;8.20;99.90;;;;;;5036418;28;20206;-51
2023/04/16 05:21:58;;;;;;;34.67;23.50;;;8.20;10.40;;;;;;5036399;28;20274;-51
2023/04/16 05:24:24;;;;;;;36.87;22.33;;;8.20;92.00;;;;;;5036353;28;20182;-51
2023/04/16 05:26:50;;;;;;;35.40;22.00;;;8.20;19.80;;;;;;5036500;28;20898;-51
2023/04/16 05:29:15;;;;;;;34.30;22.20;;;8.30;99.90;;;;;;5036201;28;20662;-51
2023/04/16 05:31:41;;;;;;;33.83;22.00;;;8.40;99.90;;;;;;5036168;28;20183;-51
2023/04/16 05:34:06;;;;;;;35.20;21.03;;;8.40;1.00;;;;;;5035759;28;20298;-50
2023/04/16 05:36:32;;;;;;;41.40;23.87;;;8.50;1.00;;;;;;5036106;28;20237;-51
2023/04/16 05:38:58;;;;;;;37.37;22.67;;;8.50;99.90;;;;;;5036054;28;20559;-51
2023/04/16 05:41:23;;;;;;;35.00;21.70;;;8.50;99.90;;;;;;5036051;28;20194;-51
2023/04/16 05:43:49;;;;;;;35.90;21.40;;;8.50;99.90;;;;;;5035989;28;20254;-51
2023/04/16 05:46:14;;;;;;;34.97;22.30;;;8.50;99.90;;;;;;5035110;28;20652;-51
2023/04/16 05:48:40;;;;;;;37.97;23.30;;;8.60;99.90;;;;;;5036117;28;20326;-51
2023/04/16 05:51:05;;;;;;;39.50;23.70;;;8.60;99.90;;;;;;5035770;28;20184;-51
2023/04/16 05:53:31;;;;;;;39.37;23.13;;;8.70;99.90;;;;;;5035543;28;20660;-51
2023/04/16 05:55:56;;;;;;;36.97;22.77;;;8.80;68.50;;;;;;5035724;28;20211;-51
2023/04/16 05:58:22;;;;;;;34.07;21.63;;;8.80;1.00;;;;;;5035410;28;20724;-51
2023/04/16 06:00:48;;;;;;;38.33;21.40;;;8.80;1.00;;;;;;5035529;28;20565;-51
2023/04/16 06:03:13;;;;;;;39.30;22.77;;;8.70;1.00;;;;;;5035636;28;20179;-51
2023/04/16 06:05:39;;;;;;;40.30;23.73;;;8.70;1.00;;;;;;5035569;28;20187;-51
2023/04/16 06:08:04;;;;;;;33.80;20.67;;;8.70;1.00;;;;;;5035542;28;20641;-51
2023/04/16 06:10:30;;;;;;;37.33;22.17;;;8.80;1.00;;;;;;5035436;28;20179;-51
2023/04/16 06:12:55;;;;;;;38.80;23.33;;;8.90;1.00;;;;;;5035134;28;20249;-51
2023/04/16 06:15:21;;;;;;;34.73;20.43;;;8.90;99.90;;;;;;5035274;28;20212;-51
2023/04/16 06:17:47;;;;;;;36.70;22.33;;;8.90;99.90;;;;;;5035349;28;20597;-50
2023/04/16 06:20:13;;;;;;;33.30;21.20;;;8.90;99.90;;;;;;5035299;28;20267;-50
2023/04/16 06:22:38;;;;;;;39.10;22.60;;;9.00;99.90;;;;;;5035310;28;20863;-51
2023/04/16 06:25:04;;;;;;;31.07;21.13;;;9.00;99.90;;;;;;5034935;28;20262;-51
2023/04/16 06:27:30;;;;;;;33.33;20.40;;;9.00;99.90;;;;;;5035287;28;20192;-51
2023/04/16 06:29:57;;;;;;;36.40;21.43;;;9.10;99.90;;;;;;5034780;28;20494;-51
2023/04/16 06:32:23;;;;;;;41.93;21.57;;;9.10;99.90;;;;;;5034720;28;20479;-51
2023/04/16 06:34:48;;;;;;;38.37;21.37;;;9.20;99.90;;;;;;5034937;28;20459;-51
2023/04/16 06:37:15;;;;;;;34.10;22.20;;;9.20;99.90;;;;;;5034959;28;20215;-51
2023/04/16 06:39:40;;;;;;;40.83;22.20;;;9.20;85.70;;;;;;5034910;28;20183;-51
2023/04/16 06:42:06;;;;;;;32.33;21.23;;;9.20;14.60;;;;;;5034853;28;20419;-51
2023/04/16 06:44:32;;;;;;;32.20;19.90;;;9.30;11.20;;;;;;5034572;28;20199;-52
2023/04/16 06:46:57;;;;;;;37.63;21.07;;;9.30;1.00;;;;;;5034258;28;20309;-51
2023/04/16 06:49:23;;;;;;;34.13;21.50;;;9.30;1.00;;;;;;5034596;28;20203;-52
2023/04/16 06:51:49;;;;;;;34.63;20.43;;;9.40;1.00;;;;;;5034705;28;20257;-51
2023/04/16 06:54:15;;;;;;;32.90;20.07;;;9.40;1.00;;;;;;5034286;28;20208;-52
2023/04/16 06:56:41;;;;;;;30.47;21.03;;;9.40;1.00;;;;;;5033243;28;20191;-51
2023/04/16 06:59:06;;;;;;;33.80;20.17;;;9.40;1.00;;;;;;5034521;28;20411;-52
2023/04/16 07:01:32;;;;;;;29.60;20.33;;;9.40;1.00;;;;;;5034170;28;20640;-51
2023/04/16 07:03:58;;;;;;;31.40;19.93;;;9.50;1.00;;;;;;5034149;28;20183;-52
2023/04/16 07:06:24;;;;;;;37.63;19.93;;;9.50;1.00;;;;;;5034068;28;20417;-52
2023/04/16 07:08:49;;;;;;;32.40;19.03;;;9.40;1.00;;;;;;5034328;28;20206;-51
2023/04/16 07:11:15;;;;;;;28.87;19.37;;;9.50;1.00;;;;;;5034325;28;20631;-52
2023/04/16 07:13:40;;;;;;;32.17;19.90;;;9.50;1.00;;;;;;5033980;28;20213;-52
2023/04/16 07:16:06;;;;;;;30.67;20.53;;;9.50;99.90;;;;;;5033932;28;20223;-51
2023/04/16 07:18:32;;;;;;;32.73;20.33;;;9.60;99.90;;;;;;5034040;28;20221;-52
2023/04/16 07:20:57;;;;;;;31.07;19.77;;;9.60;99.90;;;;;;5033926;28;20183;-52
2023/04/16 07:23:23;;;;;;;31.50;19.40;;;9.70;99.90;;;;;;5034086;28;20271;-52
2023/04/16 07:25:48;;;;;;;33.50;20.90;;;9.80;99.90;;;;;;5034095;28;20666;-52
2023/04/16 07:28:16;;;;;;;30.20;19.80;;;9.90;99.90;;;;;;5033984;28;20182;-52
2023/04/16 07:30:42;;;;;;;30.30;18.70;;;10.00;99.90;;;;;;5033985;28;20187;-52
2023/04/16 07:33:08;;;;;;;29.50;19.10;;;10.10;99.90;;;;;;5033675;28;20422;-52
2023/04/16 07:35:33;;;;;;;31.73;19.40;;;10.20;99.90;;;;;;5033509;28;20477;-52
2023/04/16 07:37:59;;;;;;;38.67;18.70;;;10.30;99.90;;;;;;5033665;28;20218;-52
2023/04/16 07:40:25;;;;;;;29.30;19.80;;;10.40;99.90;;;;;;5033901;28;20214;-52
2023/04/16 07:42:51;;;;;;;30.63;18.73;;;10.50;99.90;;;;;;5033864;28;20185;-52
2023/04/16 07:45:17;;;;;;;31.00;19.60;;;10.60;99.90;;;;;;5033793;28;20425;-52
2023/04/16 07:47:44;;;;;;;35.13;22.00;;;10.60;99.40;;;;;;5033748;28;20231;-52
2023/04/16 07:50:10;;;;;;;28.47;18.07;;;10.50;88.20;;;;;;5033688;28;20413;-52
2023/04/16 07:52:37;;;;;;;29.63;18.20;;;10.50;96.40;;;;;;5033712;28;20472;-52
2023/04/16 07:55:03;;;;;;;26.97;18.57;;;10.40;87.00;;;;;;5033569;28;20211;-52
2023/04/16 07:57:29;;;;;;;28.73;18.90;;;10.50;90.70;;;;;;5033312;28;20417;-52
2023/04/16 07:59:55;;;;;;;27.80;17.30;;;10.50;94.80;;;;;;5033660;28;20463;-52
2023/04/16 08:02:20;;;;;;;26.90;18.57;;;10.50;96.40;;;;;;5033263;28;20183;-52
2023/04/16 08:04:46;;;;;;;28.33;18.20;;;10.60;88.10;;;;;;5033578;28;20190;-52
2023/04/16 08:07:12;;;;;;;29.60;18.23;;;10.60;90.40;;;;;;5033287;28;20180;-52
2023/04/16 08:09:46;;;;;;;28.23;17.07;;;10.50;95.50;;;;;;5033283;28;20185;-53
2023/04/16 08:12:12;;;;;;;24.87;18.13;;;10.50;97.00;;;;;;5033452;28;20266;-52
2023/04/16 08:14:37;;;;;;;27.33;17.80;;;10.70;95.90;;;;;;5033158;28;20545;-52
2023/04/16 08:17:03;;;;;;;28.43;17.57;;;10.70;71.50;;;;;;5033443;28;20193;-52
2023/04/16 08:19:29;;;;;;;27.13;17.93;;;10.70;60.00;;;;;;5033155;28;20749;-52
2023/04/16 08:21:55;;;;;;;26.03;17.67;;;10.70;38.20;;;;;;5033382;28;20266;-52
2023/04/16 08:24:21;;;;;;;28.30;17.83;;;10.90;51.90;;;;;;5033356;28;20953;-50
2023/04/16 08:26:46;;;;;;;32.00;18.80;;;10.90;36.60;;;;;;5032991;28;20418;-51
2023/04/16 08:29:12;;;;;;;26.20;17.40;;;11.00;15.30;;;;;;5033124;28;20183;-51
2023/04/16 08:31:37;;;;;;;24.80;16.80;;;11.00;10.20;;;;;;5033027;28;20198;-51
2023/04/16 08:34:03;;;;;;;23.77;17.37;;;11.10;4.90;;;;;;5032949;28;20176;-51
2023/04/16 08:36:28;;;;;;;25.57;17.07;;;11.20;1.00;;;;;;5033221;28;20665;-51
2023/04/16 08:38:54;;;;;;;27.30;17.40;;;11.20;1.00;;;;;;5033237;28;20180;-51
2023/04/16 08:41:21;;;;;;;23.53;16.13;;;11.30;1.00;;;;;;5032955;28;20221;-51
2023/04/16 08:43:49;;;;;;;25.83;16.13;;;11.30;1.00;;;;;;5033237;28;20191;-51
2023/04/16 08:46:16;;;;;;;23.17;16.83;;;11.40;1.00;;;;;;5033191;28;20428;-51
2023/04/16 08:48:46;;;;;;;22.73;15.90;;;11.40;1.00;;;;;;5032727;28;20478;-52
2023/04/16 08:51:12;;;;;;;27.90;17.73;;;11.50;1.00;;;;;;5033223;28;20406;-51
2023/04/16 08:53:50;;;;;;;24.77;16.00;;;11.50;1.00;;;;;;5033111;28;20425;-51
2023/04/16 08:56:20;;;;;;;23.03;15.70;;;11.50;1.00;;;;;;5033126;28;20418;-51
2023/04/16 08:58:48;;;;;;;23.37;15.23;;;11.70;1.00;;;;;;5033093;28;20435;-51
2023/04/16 09:01:16;;;;;;;23.83;16.60;;;11.70;1.00;;;;;;5032782;28;20406;-52
2023/04/16 09:03:45;;;;;;;24.67;16.10;;;11.80;1.00;;;;;;5033006;28;20944;-52
2023/04/16 09:06:11;;;;;;;25.57;16.97;;;11.90;1.00;;;;;;5032767;28;20834;-52
2023/04/16 09:08:37;;;;;;;24.13;15.63;;;12.00;1.00;;;;;;5032712;28;20423;-52
2023/04/16 09:11:03;;;;;;;22.50;16.20;;;12.20;1.00;;;;;;5032958;28;20180;-52
2023/04/16 09:13:30;;;;;;;21.13;15.67;;;12.40;1.00;;;;;;5032933;28;20189;-52
2023/04/16 09:15:56;;;;;;;19.90;14.97;;;12.50;1.00;;;;;;5032840;28;20462;-52
2023/04/16 09:18:22;;;;;;;21.40;14.87;;;12.60;1.00;;;;;;5032547;28;20419;-52
2023/04/16 09:20:50;;;;;;;23.40;15.63;;;12.70;1.00;;;;;;5034901;28;20184;-52
2023/04/16 09:23:16;;;;;;;21.93;14.70;;;12.90;1.00;;;;;;5036375;28;20424;-52
2023/04/16 09:25:42;;;;;;;20.30;16.00;;;12.80;1.00;;;;;;5036058;28;20425;-52
2023/04/16 09:28:11;;;;;;;20.97;14.97;;;12.80;1.00;;;;;;5036269;28;20414;-52
2023/04/16 09:30:36;;;;;;;21.27;15.90;;;12.80;1.00;;;;;;5036228;28;20227;-52
2023/04/16 09:33:15;;;;;;;24.60;16.17;;;12.70;1.00;;;;;;5036200;28;20981;-52
2023/04/16 09:35:51;;;;;;;24.87;15.63;;;12.60;1.00;;;;;;5036466;28;20222;-52
2023/04/16 09:38:18;;;;;;;22.93;15.40;;;12.60;1.00;;;;;;5035909;28;20420;-52
2023/04/16 09:40:46;;;;;;;23.73;15.23;;;12.60;1.00;;;;;;5036068;28;20429;-52
2023/04/16 09:43:13;;;;;;;22.63;15.13;;;12.60;1.00;;;;;;5036001;28;20418;-52
2023/04/16 09:45:54;;;;;;;22.80;16.27;;;12.60;1.00;;;;;;5035958;28;20427;-52
2023/04/16 09:48:32;;;;;;;23.73;15.80;;;12.70;1.00;;;;;;5035439;28;20480;-52
2023/04/16 09:50:59;;;;;;;22.90;15.90;;;12.80;1.00;;;;;;5035890;28;20833;-52
2023/04/16 09:53:29;;;;;;;22.60;16.53;;;12.80;1.00;;;;;;5035828;28;20789;-52
2023/04/16 09:56:00;;;;;;;20.67;15.53;;;12.80;1.00;;;;;;5035381;28;20833;-52
2023/04/16 09:58:26;;;;;;;22.80;15.13;;;12.80;1.00;;;;;;5035715;28;20775;-52
2023/04/16 10:00:59;;;;;;;24.03;16.70;;;12.80;1.00;;;;;;5035355;28;20841;-52
2023/04/16 10:03:33;;;;;;;23.33;14.77;;;12.70;1.00;;;;;;5035374;28;20971;-52
2023/04/16 10:06:00;;;;;;;20.63;15.37;;;12.70;1.00;;;;;;5035284;28;20949;-52
2023/04/16 10:08:27;;;;;;;26.03;16.30;;;12.60;1.00;;;;;;5035572;28;20418;-52
2023/04/16 10:10:54;;;;;;;21.03;15.10;;;12.60;1.00;;;;;;5035200;28;20463;-52
2023/04/16 10:13:20;;;;;;;21.77;15.00;;;12.50;1.00;;;;;;5035101;28;20895;-52
2023/04/16 10:15:46;;;;;;;21.80;16.20;;;12.50;1.00;;;;;;5034999;28;20560;-52
2023/04/16 10:18:13;;;;;;;24.20;15.97;;;12.60;1.00;;;;;;5035336;28;20274;-52
2023/04/16 10:20:39;;;;;;;22.80;15.27;;;12.60;1.00;;;;;;5035710;28;20428;-52
2023/04/16 10:23:05;;;;;;;22.90;16.40;;;12.60;1.00;;;;;;5035253;28;20437;-52
2023/04/16 10:25:31;;;;;;;31.40;15.60;;;12.60;1.00;;;;;;5035242;28;20196;-52
2023/04/16 10:27:58;;;;;;;23.73;15.83;;;12.60;1.00;;;;;;5034928;28;20418;-52
2023/04/16 10:30:26;;;;;;;26.13;15.90;;;12.70;1.00;;;;;;5034878;28;20414;-52
2023/04/16 10:32:52;;;;;;;22.93;15.80;;;12.60;1.00;;;;;;5035095;28;20897;-52
2023/04/16 10:35:21;;;;;;;23.80;16.00;;;12.50;1.00;;;;;;5034914;28;20465;-52
2023/04/16 10:37:46;;;;;;;22.00;15.30;;;12.40;1.00;;;;;;5034990;28;20416;-52
2023/04/16 10:40:23;;;;;;;25.20;15.37;;;12.40;1.00;;;;;;5034930;28;20948;-52
2023/04/16 10:43:00;;;;;;;25.87;16.30;;;12.30;1.00;;;;;;5034779;28;20182;-52
2023/04/16 10:45:38;;;;;;;24.47;16.30;;;12.50;1.00;;;;;;5034589;28;20405;-52
2023/04/16 10:48:08;;;;;;;20.37;15.37;;;12.60;1.00;;;;;;5034418;28;20538;-52
2023/04/16 10:50:35;;;;;;;20.40;15.10;;;12.90;1.00;;;;;;5034977;28;20429;-51
2023/04/16 10:53:18;;;;;;;23.43;15.07;;;13.10;1.00;;;;;;5034689;28;20426;-52
2023/04/16 10:56:03;;;;;;;23.70;15.03;;;13.30;1.00;;;;;;5034612;28;20452;-52
2023/04/16 10:58:30;;;;;;;21.80;15.00;;;13.30;1.00;;;;;;5034306;28;20414;-53
2023/04/16 11:01:00;;;;;;;21.80;16.60;;;13.20;1.00;;;;;;5034528;28;20418;-52
2023/04/16 11:03:30;;;;;;;21.40;14.90;;;13.10;1.00;;;;;;5034196;28;20405;-52
2023/04/16 11:06:15;;;;;;;21.20;15.13;;;12.90;1.00;;;;;;5034513;28;20473;-52
2023/04/16 11:08:42;;;;;;;24.37;15.80;;;12.90;1.00;;;;;;5034086;28;20849;-52
2023/04/16 11:11:08;;;;;;;19.23;14.43;;;12.90;1.00;;;;;;5034357;28;20446;-52
2023/04/16 11:13:35;;;;;;;32.33;15.03;;;12.90;1.00;;;;;;5034345;28;20442;-52
2023/04/16 11:16:01;;;;;;;19.33;15.07;;;12.90;1.00;;;;;;5034035;28;20213;-52
2023/04/16 11:18:27;;;;;;;22.70;15.00;;;12.90;1.00;;;;;;5034191;28;20422;-52
2023/04/16 11:20:53;;;;;;;24.57;16.40;;;12.90;1.00;;;;;;5034003;28;20186;-52
2023/04/16 11:23:18;;;;;;;23.17;16.30;;;12.90;1.00;;;;;;5034200;28;20206;-52
2023/04/16 11:25:44;;;;;;;20.90;15.53;;;12.80;1.00;;;;;;5033878;28;20186;-52
2023/04/16 11:28:10;;;;;;;22.60;16.13;;;12.70;1.00;;;;;;5034045;28;20188;-52
2023/04/16 11:30:37;;;;;;;24.30;16.73;;;12.60;1.00;;;;;;5033778;28;20232;-52
2023/04/16 11:33:10;;;;;;;24.60;17.27;;;12.60;1.00;;;;;;5033844;28;20176;-52
2023/04/16 11:35:40;;;;;;;26.00;16.93;;;12.70;1.00;;;;;;5033891;28;20464;-52
2023/04/16 11:38:06;;;;;;;23.80;16.80;;;12.60;1.00;;;;;;5033944;28;20418;-52
2023/04/16 11:40:32;;;;;;;27.30;17.07;;;12.40;1.00;;;;;;5034253;28;20425;-52
2023/04/16 11:43:12;;;;;;;20.73;16.70;;;12.30;1.00;;;;;;5032950;28;20415;-52
2023/04/16 11:45:38;;;;;;;26.33;17.30;;;12.20;1.00;;;;;;5033826;28;20229;-52
2023/04/16 11:48:03;;;;;;;26.23;17.87;;;12.30;1.00;;;;;;5033372;28;20474;-52
2023/04/16 11:50:29;;;;;;;29.00;16.73;;;12.20;1.00;;;;;;5033402;28;20186;-52
2023/04/16 11:52:56;;;;;;;26.30;17.33;;;12.30;1.00;;;;;;5033704;28;20189;-52
2023/04/16 11:55:22;;;;;;;22.43;15.70;;;12.50;1.00;;;;;;5033583;28;20294;-52
2023/04/16 11:57:49;;;;;;;23.80;17.20;;;12.60;1.00;;;;;;5033403;28;20418;-52
2023/04/16 12:00:15;;;;;;;21.57;15.23;;;12.70;1.00;;;;;;5033285;28;20929;-52
2023/04/16 12:02:41;;;;;;;29.57;17.43;;;12.80;1.00;;;;;;5033289;28;20414;-52
2023/04/16 12:05:30;;;;;;;22.73;16.13;;;12.90;1.00;;;;;;5033563;28;20187;-52
2023/04/16 12:07:57;;;;;;;25.77;17.70;;;12.90;1.00;;;;;;5033799;28;20448;-52
2023/04/16 12:10:23;;;;;;;26.87;16.90;;;12.90;1.00;;;;;;5033457;28;20410;-52
2023/04/16 12:12:48;;;;;;;22.10;16.73;;;12.80;1.00;;;;;;5033206;28;20779;-51
2023/04/16 12:15:14;;;;;;;24.20;15.30;;;12.90;1.00;;;;;;5033380;28;20211;-52
2023/04/16 12:17:39;;;;;;;21.77;16.20;;;12.90;1.00;;;;;;5033503;28;20194;-52
2023/04/16 12:20:10;;;;;;;20.00;15.03;;;12.90;1.00;;;;;;5033144;28;20225;-52
2023/04/16 12:22:42;;;;;;;22.00;15.27;;;12.80;1.00;;;;;;5033453;28;20176;-53
2023/04/16 12:25:13;;;;;;;20.33;14.67;;;12.70;1.00;;;;;;5033360;28;20550;-52
2023/04/16 12:27:50;;;;;;;21.20;14.97;;;12.40;1.00;;;;;;5033345;28;20421;-52
2023/04/16 12:30:21;;;;;;;21.77;15.93;;;12.20;1.00;;;;;;5033301;28;20426;-51
2023/04/16 12:32:49;;;;;;;24.83;16.80;;;12.10;1.00;;;;;;5033074;28;20927;-51
2023/04/16 12:35:29;;;;;;;23.80;15.50;;;12.00;1.00;;;;;;5033013;28;20457;-51